createdAt,value
2022-07-29T00:04:08.827Z,19.48
2022-07-29T00:09:12.839Z,19.10
2022-07-29T00:14:17.135Z,19.08
2022-07-29T00:19:22.581Z,19.44
2022-07-29T00:24:26.905Z,19.27
2022-07-29T00:29:34.097Z,19.42
2022-07-29T00:34:57.066Z,19.66
2022-07-29T00:40:01.893Z,18.92
2022-07-29T00:45:06.668Z,19.07
2022-07-29T00:50:13.579Z,18.88
2022-07-29T00:55:18.753Z,19.23
2022-07-29T01:00:24.754Z,19.34
2022-07-29T01:05:49.814Z,19.29
2022-07-29T01:10:56.362Z,18.81
2022-07-29T01:16:05.278Z,18.56
2022-07-29T01:21:29.987Z,18.79
2022-07-29T01:26:43.422Z,18.58
2022-07-29T01:31:59.047Z,18.38
2022-07-29T01:37:11.605Z,18.21
2022-07-29T01:42:22.888Z,18.15
2022-07-29T01:47:35.689Z,18.23
2022-07-29T01:52:44.945Z,18.39
2022-07-29T01:57:51.875Z,18.48
2022-07-29T02:02:59.333Z,18.48
2022-07-29T02:08:04.352Z,18.33
2022-07-29T02:13:09.575Z,18.38
2022-07-29T02:18:18.204Z,18.65
2022-07-29T02:23:24.371Z,18.41
2022-07-29T02:28:30.659Z,18.13
2022-07-29T02:33:37.122Z,18.24
2022-07-29T02:38:52.657Z,18.22
2022-07-29T02:43:59.286Z,18.22
2022-07-29T02:49:12.159Z,18.19
2022-07-29T02:54:27.821Z,18.03
2022-07-29T02:59:36.968Z,17.76
2022-07-29T03:04:45.594Z,17.61
2022-07-29T03:09:51.093Z,17.93
2022-07-29T03:14:55.654Z,17.72
2022-07-29T03:20:01.530Z,18.09
2022-07-29T03:25:10.365Z,18.06
2022-07-29T03:30:21.736Z,18.25
2022-07-29T03:35:27.805Z,17.43
2022-07-29T03:40:36.268Z,17.41
2022-07-29T03:45:43.175Z,17.53
2022-07-29T03:50:48.629Z,17.65
2022-07-29T03:55:56.071Z,18.18
2022-07-29T04:01:00.548Z,18.50
2022-07-29T04:06:07.736Z,18.80
2022-07-29T04:11:11.691Z,18.73
2022-07-29T04:16:15.563Z,18.60
2022-07-29T04:21:20.754Z,19.48
2022-07-29T04:26:24.473Z,19.22
2022-07-29T04:31:28.504Z,19.04
2022-07-29T04:36:33.615Z,19.22
2022-07-29T04:41:38.099Z,18.37
2022-07-29T04:46:41.883Z,19.07
2022-07-29T04:51:46.948Z,17.89
2022-07-29T04:56:50.860Z,18.48
2022-07-29T05:01:54.698Z,19.28
2022-07-29T05:07:00.572Z,19.69
2022-07-29T05:12:04.460Z,20.03
2022-07-29T05:17:08.863Z,20.08
2022-07-29T05:22:14.066Z,19.98
2022-07-29T05:27:18.000Z,19.43
2022-07-29T05:32:21.746Z,20.25
2022-07-29T05:37:26.753Z,20.98
2022-07-29T05:42:30.371Z,21.37
2022-07-29T05:47:34.473Z,21.45
2022-07-29T05:52:40.518Z,20.58
2022-07-29T05:57:44.531Z,20.54
2022-07-29T06:02:48.165Z,21.37
2022-07-29T06:07:54.233Z,21.12
2022-07-29T06:12:58.019Z,20.76
2022-07-29T06:18:02.479Z,20.67
2022-07-29T06:23:08.997Z,21.07
2022-07-29T06:28:13.717Z,21.53
2022-07-29T06:33:21.407Z,21.77
2022-07-29T06:38:31.360Z,22.07
2022-07-29T06:43:45.614Z,21.99
2022-07-29T06:48:54.964Z,22.25
2022-07-29T06:54:03.381Z,22.64
2022-07-29T06:59:09.446Z,22.26
2022-07-29T07:04:14.553Z,21.83
2022-07-29T07:09:20.549Z,21.45
2022-07-29T07:14:24.497Z,21.45
2022-07-29T07:19:28.542Z,21.95
2022-07-29T07:24:34.112Z,22.57
2022-07-29T07:29:38.138Z,22.84
2022-07-29T07:34:42.078Z,22.34
2022-07-29T07:39:47.662Z,22.76
2022-07-29T07:45:12.498Z,22.27
2022-07-29T07:50:18.883Z,22.81
2022-07-29T07:55:24.758Z,23.47
2022-07-29T08:00:28.408Z,24.20
2022-07-29T08:05:33.462Z,24.03
2022-07-29T08:10:56.923Z,24.42
2022-07-29T08:16:02.850Z,24.25
2022-07-29T08:21:07.388Z,25.60
2022-07-29T08:26:14.179Z,25.21
2022-07-29T08:31:19.189Z,26.36
2022-07-29T08:36:23.271Z,25.28
2022-07-29T08:41:29.169Z,25.86
2022-07-29T08:46:33.103Z,26.20
2022-07-29T08:51:47.101Z,25.81
2022-07-29T08:56:55.651Z,25.46
2022-07-29T09:02:01.848Z,26.70
2022-07-29T09:07:08.519Z,26.87
2022-07-29T09:12:29.350Z,27.09
2022-07-29T09:17:44.751Z,26.43
2022-07-29T09:22:50.492Z,25.86
2022-07-29T09:27:55.816Z,26.21
2022-07-29T09:33:02.446Z,26.77
2022-07-29T09:38:13.764Z,26.31
2022-07-29T09:43:19.229Z,26.82
2022-07-29T09:48:25.755Z,26.88
2022-07-29T09:53:34.636Z,26.66
2022-07-29T09:58:40.083Z,26.40
2022-07-29T10:03:54.065Z,27.08
2022-07-29T10:09:10.001Z,27.64
2022-07-29T10:14:16.689Z,26.97
2022-07-29T10:19:20.731Z,27.27
2022-07-29T10:24:25.699Z,28.24
2022-07-29T10:29:32.506Z,28.35
2022-07-29T10:34:50.848Z,28.62
2022-07-29T10:40:23.665Z,29.08
2022-07-29T10:45:31.717Z,29.11
2022-07-29T10:50:59.894Z,29.11
2022-07-29T10:56:06.332Z,28.60
2022-07-29T11:01:39.006Z,29.19
2022-07-29T11:07:10.263Z,28.75
2022-07-29T11:12:48.015Z,28.73
2022-07-29T11:18:15.194Z,28.80
2022-07-29T11:23:25.716Z,28.35
2022-07-29T11:28:31.638Z,28.88
2022-07-29T11:33:56.280Z,32.17
2022-07-29T11:39:36.587Z,30.63
2022-07-29T11:44:57.317Z,32.65
2022-07-29T11:50:04.885Z,31.91
2022-07-29T11:55:16.892Z,33.22
2022-07-29T12:00:30.841Z,33.42
2022-07-29T12:05:48.273Z,33.46
2022-07-29T12:10:55.811Z,32.03
2022-07-29T12:16:02.348Z,33.46
2022-07-29T12:21:09.357Z,34.43
2022-07-29T12:26:25.568Z,33.79
2022-07-29T12:31:41.908Z,33.70
2022-07-29T12:36:50.428Z,35.00
2022-07-29T12:41:54.323Z,35.04
2022-07-29T12:47:08.902Z,34.68
2022-07-29T12:52:33.220Z,34.44
2022-07-29T12:57:47.681Z,35.70
2022-07-29T13:02:57.715Z,36.13
2022-07-29T13:08:20.061Z,35.50
2022-07-29T13:13:26.589Z,33.55
2022-07-29T13:18:31.962Z,34.74
2022-07-29T13:23:38.145Z,33.67
2022-07-29T13:28:44.241Z,32.91
2022-07-29T13:33:48.947Z,34.04
2022-07-29T13:38:54.147Z,34.66
2022-07-29T13:43:58.022Z,34.86
2022-07-29T13:49:01.935Z,35.07
2022-07-29T13:54:07.432Z,34.67
2022-07-29T13:59:11.582Z,35.16
2022-07-29T14:04:16.567Z,35.51
2022-07-29T14:09:21.945Z,35.39
2022-07-29T14:14:26.151Z,34.78
2022-07-29T14:19:30.263Z,34.62
2022-07-29T14:24:37.046Z,34.97
2022-07-29T14:29:41.256Z,34.16
2022-07-29T14:34:45.194Z,34.61
2022-07-29T14:39:50.488Z,34.05
2022-07-29T14:44:54.930Z,34.88
2022-07-29T14:49:59.162Z,35.68
2022-07-29T14:55:06.009Z,35.42
2022-07-29T15:00:23.818Z,34.51
2022-07-29T15:05:28.320Z,34.11
2022-07-29T15:10:33.858Z,32.82
2022-07-29T15:15:38.064Z,33.29
2022-07-29T15:20:41.930Z,33.76
2022-07-29T15:25:47.307Z,33.99
2022-07-29T15:30:51.167Z,33.76
2022-07-29T15:35:54.997Z,33.35
2022-07-29T15:41:00.829Z,34.07
2022-07-29T15:46:22.461Z,33.50
2022-07-29T15:51:26.446Z,32.99
2022-07-29T15:56:31.527Z,34.00
2022-07-29T16:01:35.434Z,33.01
2022-07-29T16:06:48.016Z,31.73
2022-07-29T16:11:54.156Z,30.21
2022-07-29T16:16:58.383Z,29.73
2022-07-29T16:22:02.294Z,29.22
2022-07-29T16:27:07.785Z,28.23
2022-07-29T16:32:11.886Z,27.65
2022-07-29T16:37:16.232Z,27.64
2022-07-29T16:42:44.430Z,27.81
2022-07-29T16:47:45.112Z,27.56
2022-07-29T16:52:49.009Z,27.54
2022-07-29T16:57:54.255Z,27.27
2022-07-29T17:03:00.056Z,27.24
2022-07-29T17:08:04.004Z,26.99
2022-07-29T17:13:09.169Z,26.85
2022-07-29T17:18:13.697Z,26.86
2022-07-29T17:23:17.544Z,27.29
2022-07-29T17:28:22.850Z,27.28
2022-07-29T17:33:26.697Z,27.13
2022-07-29T17:38:30.491Z,26.37
2022-07-29T17:43:35.822Z,26.42
2022-07-29T17:48:43.462Z,26.42
2022-07-29T17:53:47.478Z,26.59
2022-07-29T17:58:53.161Z,26.10
2022-07-29T18:03:59.979Z,25.90
2022-07-29T18:09:06.789Z,25.90
2022-07-29T18:14:11.895Z,25.41
2022-07-29T18:19:16.235Z,25.57
2022-07-29T18:24:20.210Z,25.37
2022-07-29T18:29:25.531Z,25.29
2022-07-29T18:34:29.163Z,24.93
2022-07-29T18:39:32.894Z,25.31
2022-07-29T18:44:43.811Z,25.31
2022-07-29T18:49:53.099Z,25.03
2022-07-29T18:54:56.808Z,25.04
2022-07-29T19:00:02.068Z,25.23
2022-07-29T19:05:06.072Z,25.17
2022-07-29T19:10:11.332Z,25.19
2022-07-29T19:15:20.115Z,25.30
2022-07-29T19:20:24.442Z,25.44
2022-07-29T19:25:28.204Z,25.39
2022-07-29T19:30:35.053Z,25.65
2022-07-29T19:35:38.572Z,25.39
2022-07-29T19:40:42.465Z,25.58
2022-07-29T19:45:47.633Z,25.81
2022-07-29T19:50:51.465Z,25.56
2022-07-29T19:55:55.443Z,25.04
2022-07-29T20:01:00.559Z,25.39
2022-07-29T20:06:04.569Z,24.99
2022-07-29T20:11:08.311Z,24.74
2022-07-29T20:16:13.424Z,25.02
2022-07-29T20:21:18.466Z,24.96
2022-07-29T20:26:22.286Z,23.87
2022-07-29T20:31:27.741Z,24.23
2022-07-29T20:36:32.197Z,24.77
2022-07-29T20:41:36.209Z,24.40
2022-07-29T20:46:41.476Z,25.07
2022-07-29T20:51:44.942Z,24.88
2022-07-29T20:56:48.727Z,25.02
2022-07-29T21:01:55.712Z,24.76
2022-07-29T21:06:59.617Z,24.40
2022-07-29T21:12:03.470Z,24.33
2022-07-29T21:17:11.391Z,24.37
2022-07-29T21:22:15.085Z,23.78
2022-07-29T21:27:38.300Z,23.92
2022-07-29T21:32:43.822Z,24.56
2022-07-29T21:37:47.430Z,23.81
2022-07-29T21:42:51.093Z,23.60
2022-07-29T21:47:56.368Z,23.99
2022-07-29T21:53:03.215Z,24.47
2022-07-29T21:58:08.240Z,24.60
2022-07-29T22:03:13.864Z,24.65
2022-07-29T22:08:17.610Z,24.77
2022-07-29T22:13:21.560Z,24.67
2022-07-29T22:18:26.612Z,23.92
2022-07-29T22:23:30.335Z,24.49
2022-07-29T22:28:34.332Z,24.58
2022-07-29T22:33:39.528Z,24.66
2022-07-29T22:38:43.102Z,24.80
2022-07-29T22:43:46.855Z,23.43
2022-07-29T22:48:51.952Z,22.78
2022-07-29T22:53:55.797Z,22.65
2022-07-29T22:58:59.454Z,21.87
2022-07-29T23:04:04.562Z,22.05
2022-07-29T23:09:08.461Z,22.53
2022-07-29T23:14:12.048Z,22.89
2022-07-29T23:19:17.161Z,22.94
2022-07-29T23:24:20.822Z,22.87
2022-07-29T23:29:24.532Z,23.34
2022-07-29T23:34:29.557Z,23.28
2022-07-29T23:39:33.277Z,22.93
2022-07-29T23:44:36.947Z,23.24
2022-07-29T23:49:42.086Z,23.25
2022-07-29T23:54:45.699Z,23.22
2022-07-29T23:59:49.531Z,23.17
